sensor_id;sensor_type;location;lat;lon;timestamp;temperature;humidity
5683;DHT22;2864;49.220;8.654;2023-11-18T00:01:51;6.20;99.90
5683;DHT22;2864;49.220;8.654;2023-11-18T00:04:17;6.20;99.90
5683;DHT22;2864;49.220;8.654;2023-11-18T00:06:43;6.20;99.90
5683;DHT22;2864;49.220;8.654;2023-11-18T00:09:12;6.10;99.90
5683;DHT22;2864;49.220;8.654;2023-11-18T00:11:39;6.20;99.90
5683;DHT22;2864;49.220;8.654;2023-11-18T00:21:24;6.20;99.90
5683;DHT22;2864;49.220;8.654;2023-11-18T00:23:50;6.20;99.90
5683;DHT22;2864;49.220;8.654;2023-11-18T00:31:07;6.30;99.90
5683;DHT22;2864;49.220;8.654;2023-11-18T00:33:33;6.30;99.90
5683;DHT22;2864;49.220;8.654;2023-11-18T00:38:28;6.20;99.90
5683;DHT22;2864;49.220;8.654;2023-11-18T00:40:53;6.30;99.90
5683;DHT22;2864;49.220;8.654;2023-11-18T00:48:12;6.20;99.90
5683;DHT22;2864;49.220;8.654;2023-11-18T00:50:37;6.30;99.90
5683;DHT22;2864;49.220;8.654;2023-11-18T00:55:30;6.30;99.90
5683;DHT22;2864;49.220;8.654;2023-11-18T00:57:57;6.30;99.90
5683;DHT22;2864;49.220;8.654;2023-11-18T01:00:24;6.30;99.90
5683;DHT22;2864;49.220;8.654;2023-11-18T01:02:53;6.30;99.90
5683;DHT22;2864;49.220;8.654;2023-11-18T01:15:06;6.30;99.90
5683;DHT22;2864;49.220;8.654;2023-11-18T01:17:32;6.30;99.90
5683;DHT22;2864;49.220;8.654;2023-11-18T01:19:58;6.30;99.90
5683;DHT22;2864;49.220;8.654;2023-11-18T01:24:50;6.30;99.90
5683;DHT22;2864;49.220;8.654;2023-11-18T01:27:18;6.30;99.90
5683;DHT22;2864;49.220;8.654;2023-11-18T01:29:45;6.30;99.90
5683;DHT22;2864;49.220;8.654;2023-11-18T01:34:39;6.40;99.90
5683;DHT22;2864;49.220;8.654;2023-11-18T01:37:05;6.40;99.90
5683;DHT22;2864;49.220;8.654;2023-11-18T01:39:33;6.30;99.90
5683;DHT22;2864;49.220;8.654;2023-11-18T01:41:59;6.40;99.90
5683;DHT22;2864;49.220;8.654;2023-11-18T01:44:25;6.40;99.90
5683;DHT22;2864;49.220;8.654;2023-11-18T01:46:54;6.40;99.90
5683;DHT22;2864;49.220;8.654;2023-11-18T01:49:20;6.40;99.90
5683;DHT22;2864;49.220;8.654;2023-11-18T01:51:46;6.40;99.90
5683;DHT22;2864;49.220;8.654;2023-11-18T01:54:13;6.40;99.90
5683;DHT22;2864;49.220;8.654;2023-11-18T01:56:47;6.30;99.90
5683;DHT22;2864;49.220;8.654;2023-11-18T01:59:13;6.30;99.90
5683;DHT22;2864;49.220;8.654;2023-11-18T02:01:47;6.30;99.90
5683;DHT22;2864;49.220;8.654;2023-11-18T02:04:14;6.30;99.90
5683;DHT22;2864;49.220;8.654;2023-11-18T02:06:39;6.30;99.90
5683;DHT22;2864;49.220;8.654;2023-11-18T02:09:05;6.30;99.90
5683;DHT22;2864;49.220;8.654;2023-11-18T02:11:37;6.30;99.90
5683;DHT22;2864;49.220;8.654;2023-11-18T02:14:08;6.40;99.90
5683;DHT22;2864;49.220;8.654;2023-11-18T02:16:38;6.40;99.90
5683;DHT22;2864;49.220;8.654;2023-11-18T02:19:12;6.50;99.90
5683;DHT22;2864;49.220;8.654;2023-11-18T02:21:39;6.40;99.90
5683;DHT22;2864;49.220;8.654;2023-11-18T02:24:06;6.40;99.90
5683;DHT22;2864;49.220;8.654;2023-11-18T02:26:32;6.50;99.90
5683;DHT22;2864;49.220;8.654;2023-11-18T02:28:57;6.40;99.90
5683;DHT22;2864;49.220;8.654;2023-11-18T02:31:29;6.40;99.90
5683;DHT22;2864;49.220;8.654;2023-11-18T02:34:07;6.40;99.90
5683;DHT22;2864;49.220;8.654;2023-11-18T02:36:42;6.40;99.90
5683;DHT22;2864;49.220;8.654;2023-11-18T02:39:22;6.30;99.90
5683;DHT22;2864;49.220;8.654;2023-11-18T02:41:52;6.30;99.90
5683;DHT22;2864;49.220;8.654;2023-11-18T02:44:18;6.30;99.90
5683;DHT22;2864;49.220;8.654;2023-11-18T02:46:45;6.30;99.90
5683;DHT22;2864;49.220;8.654;2023-11-18T02:54:08;6.30;99.90
5683;DHT22;2864;49.220;8.654;2023-11-18T02:56:36;6.30;99.90
5683;DHT22;2864;49.220;8.654;2023-11-18T02:59:02;6.40;99.90
5683;DHT22;2864;49.220;8.654;2023-11-18T03:01:31;6.40;99.90
5683;DHT22;2864;49.220;8.654;2023-11-18T03:03:56;6.40;99.90
5683;DHT22;2864;49.220;8.654;2023-11-18T03:06:22;6.30;99.90
5683;DHT22;2864;49.220;8.654;2023-11-18T03:11:14;6.30;99.90
5683;DHT22;2864;49.220;8.654;2023-11-18T03:13:39;6.20;99.90
5683;DHT22;2864;49.220;8.654;2023-11-18T03:16:08;6.10;99.90
5683;DHT22;2864;49.220;8.654;2023-11-18T03:18:42;6.10;99.90
5683;DHT22;2864;49.220;8.654;2023-11-18T03:21:14;6.00;99.90
5683;DHT22;2864;49.220;8.654;2023-11-18T03:23:41;6.00;99.90
5683;DHT22;2864;49.220;8.654;2023-11-18T03:26:07;5.90;99.90
5683;DHT22;2864;49.220;8.654;2023-11-18T03:28:33;5.90;99.90
5683;DHT22;2864;49.220;8.654;2023-11-18T03:30:59;5.90;99.90
5683;DHT22;2864;49.220;8.654;2023-11-18T03:33:25;5.90;99.90
5683;DHT22;2864;49.220;8.654;2023-11-18T03:35:50;5.90;99.90
5683;DHT22;2864;49.220;8.654;2023-11-18T03:40:45;5.90;99.90
5683;DHT22;2864;49.220;8.654;2023-11-18T03:43:11;5.90;99.90
5683;DHT22;2864;49.220;8.654;2023-11-18T03:45:40;5.90;99.90
5683;DHT22;2864;49.220;8.654;2023-11-18T03:50:33;5.80;99.90
5683;DHT22;2864;49.220;8.654;2023-11-18T03:52:59;5.70;99.90
5683;DHT22;2864;49.220;8.654;2023-11-18T03:57:51;5.60;99.90
5683;DHT22;2864;49.220;8.654;2023-11-18T04:00:17;5.60;99.90
5683;DHT22;2864;49.220;8.654;2023-11-18T04:02:45;5.50;99.90
5683;DHT22;2864;49.220;8.654;2023-11-18T04:05:11;5.50;99.90
5683;DHT22;2864;49.220;8.654;2023-11-18T04:07:37;5.50;99.90
5683;DHT22;2864;49.220;8.654;2023-11-18T04:10:03;5.40;99.90
5683;DHT22;2864;49.220;8.654;2023-11-18T04:12:32;5.50;99.90
5683;DHT22;2864;49.220;8.654;2023-11-18T04:14:57;5.40;99.90
5683;DHT22;2864;49.220;8.654;2023-11-18T04:17:23;5.40;99.90
5683;DHT22;2864;49.220;8.654;2023-11-18T04:19:48;5.30;99.90
5683;DHT22;2864;49.220;8.654;2023-11-18T04:22:14;5.40;99.90
5683;DHT22;2864;49.220;8.654;2023-11-18T04:24:39;5.30;99.90
5683;DHT22;2864;49.220;8.654;2023-11-18T04:27:05;5.20;99.90
5683;DHT22;2864;49.220;8.654;2023-11-18T04:29:30;5.20;99.90
5683;DHT22;2864;49.220;8.654;2023-11-18T04:31:56;5.20;99.90
5683;DHT22;2864;49.220;8.654;2023-11-18T04:34:22;5.20;99.90
5683;DHT22;2864;49.220;8.654;2023-11-18T04:36:47;5.20;99.90
5683;DHT22;2864;49.220;8.654;2023-11-18T04:39:13;5.10;99.90
5683;DHT22;2864;49.220;8.654;2023-11-18T04:41:41;5.10;99.90
5683;DHT22;2864;49.220;8.654;2023-11-18T04:44:07;5.00;99.90
5683;DHT22;2864;49.220;8.654;2023-11-18T04:46:32;5.00;99.90
5683;DHT22;2864;49.220;8.654;2023-11-18T04:48:58;5.00;99.90
5683;DHT22;2864;49.220;8.654;2023-11-18T04:51:24;4.90;99.90
5683;DHT22;2864;49.220;8.654;2023-11-18T04:53:49;4.90;99.90
5683;DHT22;2864;49.220;8.654;2023-11-18T04:56:15;4.90;99.90
5683;DHT22;2864;49.220;8.654;2023-11-18T04:58:43;4.80;99.90
5683;DHT22;2864;49.220;8.654;2023-11-18T05:01:12;4.80;99.90
5683;DHT22;2864;49.220;8.654;2023-11-18T05:03:38;4.80;99.90
5683;DHT22;2864;49.220;8.654;2023-11-18T05:06:04;4.80;99.90
5683;DHT22;2864;49.220;8.654;2023-11-18T05:08:29;4.80;99.90
5683;DHT22;2864;49.220;8.654;2023-11-18T05:10:56;4.80;99.90
5683;DHT22;2864;49.220;8.654;2023-11-18T05:13:23;4.90;99.90
5683;DHT22;2864;49.220;8.654;2023-11-18T05:15:48;4.90;99.90
5683;DHT22;2864;49.220;8.654;2023-11-18T05:18:15;4.90;99.90
5683;DHT22;2864;49.220;8.654;2023-11-18T05:20:44;5.00;99.90
5683;DHT22;2864;49.220;8.654;2023-11-18T05:23:10;5.00;99.90
5683;DHT22;2864;49.220;8.654;2023-11-18T05:25:38;5.10;99.90
5683;DHT22;2864;49.220;8.654;2023-11-18T05:28:04;5.20;99.90
5683;DHT22;2864;49.220;8.654;2023-11-18T05:30:32;5.30;99.90
5683;DHT22;2864;49.220;8.654;2023-11-18T05:32:58;5.50;99.90
5683;DHT22;2864;49.220;8.654;2023-11-18T05:35:24;5.70;99.90
5683;DHT22;2864;49.220;8.654;2023-11-18T05:37:54;5.80;99.90
5683;DHT22;2864;49.220;8.654;2023-11-18T05:40:19;5.80;99.90
5683;DHT22;2864;49.220;8.654;2023-11-18T05:42:45;5.90;99.90
5683;DHT22;2864;49.220;8.654;2023-11-18T05:45:13;5.90;99.90
5683;DHT22;2864;49.220;8.654;2023-11-18T05:47:54;6.00;99.90
5683;DHT22;2864;49.220;8.654;2023-11-18T05:50:19;6.00;99.90
5683;DHT22;2864;49.220;8.654;2023-11-18T05:52:45;6.00;99.90
5683;DHT22;2864;49.220;8.654;2023-11-18T05:55:10;6.10;99.90
5683;DHT22;2864;49.220;8.654;2023-11-18T05:57:36;6.10;99.90
5683;DHT22;2864;49.220;8.654;2023-11-18T06:00:01;6.20;99.90
5683;DHT22;2864;49.220;8.654;2023-11-18T06:02:30;6.20;99.90
5683;DHT22;2864;49.220;8.654;2023-11-18T06:04:56;6.20;99.90
5683;DHT22;2864;49.220;8.654;2023-11-18T06:07:22;6.10;99.90
5683;DHT22;2864;49.220;8.654;2023-11-18T06:09:48;6.10;99.90
5683;DHT22;2864;49.220;8.654;2023-11-18T06:12:13;6.10;99.90
5683;DHT22;2864;49.220;8.654;2023-11-18T06:14:40;6.10;99.90
5683;DHT22;2864;49.220;8.654;2023-11-18T06:17:07;6.00;99.90
5683;DHT22;2864;49.220;8.654;2023-11-18T06:19:34;6.10;99.90
5683;DHT22;2864;49.220;8.654;2023-11-18T06:21:59;6.10;99.90
5683;DHT22;2864;49.220;8.654;2023-11-18T06:24:25;6.00;99.90
5683;DHT22;2864;49.220;8.654;2023-11-18T06:26:51;6.00;99.90
5683;DHT22;2864;49.220;8.654;2023-11-18T06:29:17;6.10;99.90
5683;DHT22;2864;49.220;8.654;2023-11-18T06:31:42;6.10;99.90
5683;DHT22;2864;49.220;8.654;2023-11-18T06:34:08;6.00;99.90
5683;DHT22;2864;49.220;8.654;2023-11-18T06:36:34;6.10;99.90
5683;DHT22;2864;49.220;8.654;2023-11-18T06:38:59;6.10;99.90
5683;DHT22;2864;49.220;8.654;2023-11-18T06:41:25;6.10;99.90
5683;DHT22;2864;49.220;8.654;2023-11-18T06:43:59;6.10;99.90
5683;DHT22;2864;49.220;8.654;2023-11-18T06:46:28;6.10;99.90
5683;DHT22;2864;49.220;8.654;2023-11-18T06:48:57;6.20;99.90
5683;DHT22;2864;49.220;8.654;2023-11-18T06:51:24;6.20;99.90
5683;DHT22;2864;49.220;8.654;2023-11-18T06:53:59;6.20;99.90
5683;DHT22;2864;49.220;8.654;2023-11-18T06:56:25;6.20;99.90
5683;DHT22;2864;49.220;8.654;2023-11-18T06:58:51;6.10;99.90
5683;DHT22;2864;49.220;8.654;2023-11-18T07:01:17;6.20;99.90
5683;DHT22;2864;49.220;8.654;2023-11-18T07:03:44;6.20;99.90
5683;DHT22;2864;49.220;8.654;2023-11-18T07:06:10;6.20;99.90
5683;DHT22;2864;49.220;8.654;2023-11-18T07:08:36;6.20;99.90
5683;DHT22;2864;49.220;8.654;2023-11-18T07:11:03;6.20;99.90
5683;DHT22;2864;49.220;8.654;2023-11-18T07:13:29;6.20;99.90
5683;DHT22;2864;49.220;8.654;2023-11-18T07:15:54;6.30;99.90
5683;DHT22;2864;49.220;8.654;2023-11-18T07:18:22;6.30;99.90
5683;DHT22;2864;49.220;8.654;2023-11-18T07:20:50;6.30;99.90
5683;DHT22;2864;49.220;8.654;2023-11-18T07:23:20;6.40;99.90
5683;DHT22;2864;49.220;8.654;2023-11-18T07:25:46;6.40;99.90
5683;DHT22;2864;49.220;8.654;2023-11-18T07:28:12;6.40;99.90
5683;DHT22;2864;49.220;8.654;2023-11-18T07:30:43;6.50;99.90
5683;DHT22;2864;49.220;8.654;2023-11-18T07:33:14;6.50;99.90
5683;DHT22;2864;49.220;8.654;2023-11-18T07:35:40;6.60;99.90
5683;DHT22;2864;49.220;8.654;2023-11-18T07:38:05;6.60;99.90
5683;DHT22;2864;49.220;8.654;2023-11-18T07:40:33;6.60;99.90
5683;DHT22;2864;49.220;8.654;2023-11-18T07:43:02;6.60;99.90
5683;DHT22;2864;49.220;8.654;2023-11-18T07:45:34;8.60;99.90
5683;DHT22;2864;49.220;8.654;2023-11-18T07:48:03;6.60;99.90
5683;DHT22;2864;49.220;8.654;2023-11-18T07:50:34;6.70;99.90
5683;DHT22;2864;49.220;8.654;2023-11-18T07:52:59;6.60;99.90
5683;DHT22;2864;49.220;8.654;2023-11-18T07:55:25;6.70;99.90
5683;DHT22;2864;49.220;8.654;2023-11-18T07:57:50;8.60;99.90
5683;DHT22;2864;49.220;8.654;2023-11-18T08:00:16;10.20;99.90
5683;DHT22;2864;49.220;8.654;2023-11-18T08:02:41;6.80;99.90
5683;DHT22;2864;49.220;8.654;2023-11-18T08:05:07;6.80;99.90
5683;DHT22;2864;49.220;8.654;2023-11-18T08:07:35;6.80;99.90
5683;DHT22;2864;49.220;8.654;2023-11-18T08:10:02;6.80;99.90
5683;DHT22;2864;49.220;8.654;2023-11-18T08:12:33;6.80;99.90
5683;DHT22;2864;49.220;8.654;2023-11-18T08:15:00;6.80;99.90
5683;DHT22;2864;49.220;8.654;2023-11-18T08:17:26;6.80;99.90
5683;DHT22;2864;49.220;8.654;2023-11-18T08:19:52;7.80;99.90
5683;DHT22;2864;49.220;8.654;2023-11-18T08:22:18;6.90;99.90
5683;DHT22;2864;49.220;8.654;2023-11-18T08:24:46;6.90;99.90
5683;DHT22;2864;49.220;8.654;2023-11-18T08:27:11;7.00;99.90
5683;DHT22;2864;49.220;8.654;2023-11-18T08:29:37;7.00;99.90
5683;DHT22;2864;49.220;8.654;2023-11-18T08:32:05;7.10;99.90
5683;DHT22;2864;49.220;8.654;2023-11-18T08:34:30;7.10;99.90
5683;DHT22;2864;49.220;8.654;2023-11-18T08:36:58;7.20;99.90
5683;DHT22;2864;49.220;8.654;2023-11-18T08:39:25;7.20;99.90
5683;DHT22;2864;49.220;8.654;2023-11-18T08:41:51;9.70;99.90
5683;DHT22;2864;49.220;8.654;2023-11-18T08:44:17;7.40;99.90
5683;DHT22;2864;49.220;8.654;2023-11-18T08:46:43;7.40;99.90
5683;DHT22;2864;49.220;8.654;2023-11-18T08:49:09;7.50;99.90
5683;DHT22;2864;49.220;8.654;2023-11-18T08:51:40;7.60;99.90
5683;DHT22;2864;49.220;8.654;2023-11-18T08:54:08;7.60;99.90
5683;DHT22;2864;49.220;8.654;2023-11-18T08:56:51;7.70;99.90
5683;DHT22;2864;49.220;8.654;2023-11-18T08:59:20;7.90;99.90
5683;DHT22;2864;49.220;8.654;2023-11-18T09:01:54;8.00;99.90
5683;DHT22;2864;49.220;8.654;2023-11-18T09:04:27;8.10;99.90
5683;DHT22;2864;49.220;8.654;2023-11-18T09:06:53;8.10;99.90
5683;DHT22;2864;49.220;8.654;2023-11-18T09:09:20;8.30;99.90
5683;DHT22;2864;49.220;8.654;2023-11-18T09:11:53;8.30;99.90
5683;DHT22;2864;49.220;8.654;2023-11-18T09:14:19;8.40;99.90
5683;DHT22;2864;49.220;8.654;2023-11-18T09:16:44;8.50;99.90
5683;DHT22;2864;49.220;8.654;2023-11-18T09:19:10;8.50;99.90
5683;DHT22;2864;49.220;8.654;2023-11-18T09:21:36;8.60;99.90
5683;DHT22;2864;49.220;8.654;2023-11-18T09:24:02;8.40;99.90
5683;DHT22;2864;49.220;8.654;2023-11-18T09:26:31;8.70;99.90
5683;DHT22;2864;49.220;8.654;2023-11-18T09:28:56;8.70;99.90
5683;DHT22;2864;49.220;8.654;2023-11-18T09:31:23;11.30;99.90
5683;DHT22;2864;49.220;8.654;2023-11-18T09:33:49;11.40;99.90
5683;DHT22;2864;49.220;8.654;2023-11-18T09:36:18;8.80;99.90
5683;DHT22;2864;49.220;8.654;2023-11-18T09:38:44;8.80;99.90
5683;DHT22;2864;49.220;8.654;2023-11-18T09:41:12;9.00;99.90
5683;DHT22;2864;49.220;8.654;2023-11-18T09:43:38;9.00;99.90
5683;DHT22;2864;49.220;8.654;2023-11-18T09:46:09;9.00;99.90
5683;DHT22;2864;49.220;8.654;2023-11-18T09:48:52;9.10;99.90
5683;DHT22;2864;49.220;8.654;2023-11-18T09:51:26;9.10;99.90
5683;DHT22;2864;49.220;8.654;2023-11-18T09:54:04;9.30;99.90
5683;DHT22;2864;49.220;8.654;2023-11-18T09:56:48;9.30;99.90
5683;DHT22;2864;49.220;8.654;2023-11-18T09:59:50;9.40;99.90
5683;DHT22;2864;49.220;8.654;2023-11-18T10:02:22;9.40;99.90
5683;DHT22;2864;49.220;8.654;2023-11-18T10:04:49;9.40;99.90
5683;DHT22;2864;49.220;8.654;2023-11-18T10:07:18;9.40;99.90
5683;DHT22;2864;49.220;8.654;2023-11-18T10:09:45;9.40;99.90
5683;DHT22;2864;49.220;8.654;2023-11-18T10:12:11;9.30;99.90
5683;DHT22;2864;49.220;8.654;2023-11-18T10:14:42;11.70;99.90
5683;DHT22;2864;49.220;8.654;2023-11-18T10:17:10;9.40;99.90
5683;DHT22;2864;49.220;8.654;2023-11-18T10:19:55;9.60;99.90
5683;DHT22;2864;49.220;8.654;2023-11-18T10:22:25;9.50;99.90
5683;DHT22;2864;49.220;8.654;2023-11-18T10:24:51;11.40;99.90
5683;DHT22;2864;49.220;8.654;2023-11-18T10:27:24;9.50;99.90
5683;DHT22;2864;49.220;8.654;2023-11-18T10:29:56;9.50;99.90
5683;DHT22;2864;49.220;8.654;2023-11-18T10:32:22;9.40;99.90
5683;DHT22;2864;49.220;8.654;2023-11-18T10:34:56;9.40;99.90
5683;DHT22;2864;49.220;8.654;2023-11-18T10:37:23;9.50;99.90
5683;DHT22;2864;49.220;8.654;2023-11-18T10:39:49;9.70;99.90
5683;DHT22;2864;49.220;8.654;2023-11-18T10:42:17;10.60;99.90
5683;DHT22;2864;49.220;8.654;2023-11-18T10:44:57;9.70;99.90
5683;DHT22;2864;49.220;8.654;2023-11-18T10:47:26;9.60;99.90
5683;DHT22;2864;49.220;8.654;2023-11-18T10:49:56;9.50;99.90
5683;DHT22;2864;49.220;8.654;2023-11-18T10:52:22;9.60;99.90
5683;DHT22;2864;49.220;8.654;2023-11-18T10:54:54;9.60;99.90
5683;DHT22;2864;49.220;8.654;2023-11-18T10:57:21;9.70;99.90
5683;DHT22;2864;49.220;8.654;2023-11-18T11:00:04;9.70;99.90
5683;DHT22;2864;49.220;8.654;2023-11-18T11:02:39;9.80;99.90
5683;DHT22;2864;49.220;8.654;2023-11-18T11:05:07;9.80;99.90
5683;DHT22;2864;49.220;8.654;2023-11-18T11:07:33;9.70;99.90
5683;DHT22;2864;49.220;8.654;2023-11-18T11:10:01;9.70;99.90
5683;DHT22;2864;49.220;8.654;2023-11-18T11:12:33;9.60;99.90
5683;DHT22;2864;49.220;8.654;2023-11-18T11:15:12;9.60;99.90
5683;DHT22;2864;49.220;8.654;2023-11-18T11:17:51;9.70;99.90
5683;DHT22;2864;49.220;8.654;2023-11-18T11:20:22;9.60;99.90
5683;DHT22;2864;49.220;8.654;2023-11-18T11:25:49;9.60;99.90
5683;DHT22;2864;49.220;8.654;2023-11-18T11:28:22;9.70;99.90
5683;DHT22;2864;49.220;8.654;2023-11-18T11:30:58;9.70;99.90
5683;DHT22;2864;49.220;8.654;2023-11-18T11:33:32;11.60;99.90
5683;DHT22;2864;49.220;8.654;2023-11-18T11:36:14;9.60;99.90
5683;DHT22;2864;49.220;8.654;2023-11-18T11:38:43;9.60;99.90
5683;DHT22;2864;49.220;8.654;2023-11-18T11:41:13;9.60;99.90
5683;DHT22;2864;49.220;8.654;2023-11-18T11:43:48;9.60;99.90
5683;DHT22;2864;49.220;8.654;2023-11-18T11:46:15;9.70;99.90
5683;DHT22;2864;49.220;8.654;2023-11-18T11:48:46;9.60;99.90
5683;DHT22;2864;49.220;8.654;2023-11-18T11:51:24;9.70;99.90
5683;DHT22;2864;49.220;8.654;2023-11-18T11:54:02;9.60;99.90
5683;DHT22;2864;49.220;8.654;2023-11-18T11:56:43;9.70;99.90
5683;DHT22;2864;49.220;8.654;2023-11-18T11:59:09;9.80;99.90
5683;DHT22;2864;49.220;8.654;2023-11-18T12:01:38;10.80;99.90
5683;DHT22;2864;49.220;8.654;2023-11-18T12:04:04;9.70;99.90
5683;DHT22;2864;49.220;8.654;2023-11-18T12:06:41;9.60;99.90
5683;DHT22;2864;49.220;8.654;2023-11-18T12:09:09;9.60;99.90
5683;DHT22;2864;49.220;8.654;2023-11-18T12:11:36;10.60;99.90
5683;DHT22;2864;49.220;8.654;2023-11-18T12:14:08;10.30;99.90
5683;DHT22;2864;49.220;8.654;2023-11-18T12:17:05;11.10;99.90
5683;DHT22;2864;49.220;8.654;2023-11-18T12:19:46;11.10;99.90
5683;DHT22;2864;49.220;8.654;2023-11-18T12:22:22;10.80;99.90
5683;DHT22;2864;49.220;8.654;2023-11-18T12:32:59;9.40;99.90
5683;DHT22;2864;49.220;8.654;2023-11-18T12:38:54;9.30;99.90
5683;DHT22;2864;49.220;8.654;2023-11-18T12:46:55;9.20;99.90
5683;DHT22;2864;49.220;8.654;2023-11-18T12:49:24;9.20;99.90
5683;DHT22;2864;49.220;8.654;2023-11-18T12:51:51;9.10;99.90
5683;DHT22;2864;49.220;8.654;2023-11-18T12:54:26;9.10;99.90
5683;DHT22;2864;49.220;8.654;2023-11-18T12:56:55;9.10;99.90
5683;DHT22;2864;49.220;8.654;2023-11-18T12:59:21;9.10;99.90
5683;DHT22;2864;49.220;8.654;2023-11-18T13:01:47;9.10;99.90
5683;DHT22;2864;49.220;8.654;2023-11-18T13:04:18;9.10;99.90
5683;DHT22;2864;49.220;8.654;2023-11-18T13:06:46;9.10;99.90
5683;DHT22;2864;49.220;8.654;2023-11-18T13:09:11;9.10;99.90
5683;DHT22;2864;49.220;8.654;2023-11-18T13:11:57;12.00;99.90
5683;DHT22;2864;49.220;8.654;2023-11-18T13:14:27;9.20;99.90
5683;DHT22;2864;49.220;8.654;2023-11-18T13:16:56;9.20;99.90
5683;DHT22;2864;49.220;8.654;2023-11-18T13:19:29;9.20;99.90
5683;DHT22;2864;49.220;8.654;2023-11-18T13:22:02;9.20;99.90
5683;DHT22;2864;49.220;8.654;2023-11-18T13:24:30;9.20;99.90
5683;DHT22;2864;49.220;8.654;2023-11-18T13:26:57;9.30;99.90
5683;DHT22;2864;49.220;8.654;2023-11-18T13:29:23;9.30;99.90
5683;DHT22;2864;49.220;8.654;2023-11-18T13:31:50;9.20;99.90
5683;DHT22;2864;49.220;8.654;2023-11-18T13:34:19;9.30;99.90
5683;DHT22;2864;49.220;8.654;2023-11-18T13:36:48;9.20;99.90
5683;DHT22;2864;49.220;8.654;2023-11-18T13:39:20;9.20;99.90
5683;DHT22;2864;49.220;8.654;2023-11-18T13:41:50;9.20;99.90
5683;DHT22;2864;49.220;8.654;2023-11-18T13:44:35;9.30;99.90
5683;DHT22;2864;49.220;8.654;2023-11-18T13:47:07;9.30;99.90
5683;DHT22;2864;49.220;8.654;2023-11-18T13:49:38;9.20;99.90
5683;DHT22;2864;49.220;8.654;2023-11-18T13:52:06;9.20;99.90
5683;DHT22;2864;49.220;8.654;2023-11-18T13:54:35;9.20;99.90
5683;DHT22;2864;49.220;8.654;2023-11-18T13:57:01;9.20;99.90
5683;DHT22;2864;49.220;8.654;2023-11-18T13:59:26;9.20;99.90
5683;DHT22;2864;49.220;8.654;2023-11-18T14:01:54;9.30;99.90
5683;DHT22;2864;49.220;8.654;2023-11-18T14:04:28;9.40;99.90
5683;DHT22;2864;49.220;8.654;2023-11-18T14:06:59;9.40;99.90
5683;DHT22;2864;49.220;8.654;2023-11-18T14:09:25;9.40;99.90
5683;DHT22;2864;49.220;8.654;2023-11-18T14:11:52;9.40;99.90
5683;DHT22;2864;49.220;8.654;2023-11-18T14:14:21;9.30;99.90
5683;DHT22;2864;49.220;8.654;2023-11-18T14:16:46;9.30;99.90
5683;DHT22;2864;49.220;8.654;2023-11-18T14:19:12;9.30;99.90
5683;DHT22;2864;49.220;8.654;2023-11-18T14:21:38;9.20;99.90
5683;DHT22;2864;49.220;8.654;2023-11-18T14:24:05;9.10;99.90
5683;DHT22;2864;49.220;8.654;2023-11-18T14:26:30;9.10;99.90
5683;DHT22;2864;49.220;8.654;2023-11-18T14:28:57;9.10;99.90
5683;DHT22;2864;49.220;8.654;2023-11-18T14:31:24;9.00;99.90
5683;DHT22;2864;49.220;8.654;2023-11-18T14:33:50;9.00;99.90
5683;DHT22;2864;49.220;8.654;2023-11-18T14:36:17;11.00;99.90
5683;DHT22;2864;49.220;8.654;2023-11-18T14:38:42;8.90;99.90
5683;DHT22;2864;49.220;8.654;2023-11-18T14:41:10;8.90;99.90
5683;DHT22;2864;49.220;8.654;2023-11-18T14:43:35;8.80;99.90
5683;DHT22;2864;49.220;8.654;2023-11-18T14:46:01;11.30;99.90
5683;DHT22;2864;49.220;8.654;2023-11-18T14:48:29;8.80;99.90
5683;DHT22;2864;49.220;8.654;2023-11-18T14:50:54;8.70;99.90
5683;DHT22;2864;49.220;8.654;2023-11-18T14:53:22;8.80;99.90
5683;DHT22;2864;49.220;8.654;2023-11-18T14:55:48;8.80;99.90
5683;DHT22;2864;49.220;8.654;2023-11-18T14:58:13;11.10;99.90
5683;DHT22;2864;49.220;8.654;2023-11-18T15:00:39;8.50;99.90
5683;DHT22;2864;49.220;8.654;2023-11-18T15:03:05;8.80;99.90
5683;DHT22;2864;49.220;8.654;2023-11-18T15:05:31;8.70;99.90
5683;DHT22;2864;49.220;8.654;2023-11-18T15:07:57;8.60;99.90
5683;DHT22;2864;49.220;8.654;2023-11-18T15:10:27;8.80;99.90
5683;DHT22;2864;49.220;8.654;2023-11-18T15:12:58;8.70;99.90
5683;DHT22;2864;49.220;8.654;2023-11-18T15:15:26;8.70;99.90
5683;DHT22;2864;49.220;8.654;2023-11-18T15:18:03;8.60;99.90
5683;DHT22;2864;49.220;8.654;2023-11-18T15:20:50;8.60;99.90
5683;DHT22;2864;49.220;8.654;2023-11-18T15:23:17;8.50;99.90
5683;DHT22;2864;49.220;8.654;2023-11-18T15:25:43;8.50;99.90
5683;DHT22;2864;49.220;8.654;2023-11-18T15:28:09;8.40;99.90
5683;DHT22;2864;49.220;8.654;2023-11-18T15:30:36;8.40;99.90
5683;DHT22;2864;49.220;8.654;2023-11-18T15:33:02;8.40;99.90
5683;DHT22;2864;49.220;8.654;2023-11-18T15:35:27;8.30;99.90
5683;DHT22;2864;49.220;8.654;2023-11-18T15:37:54;8.30;99.90
5683;DHT22;2864;49.220;8.654;2023-11-18T15:40:20;8.30;99.90
5683;DHT22;2864;49.220;8.654;2023-11-18T15:42:48;8.20;99.90
5683;DHT22;2864;49.220;8.654;2023-11-18T15:45:21;8.20;99.90
5683;DHT22;2864;49.220;8.654;2023-11-18T15:47:51;8.20;99.90
5683;DHT22;2864;49.220;8.654;2023-11-18T15:50:17;8.20;99.90
5683;DHT22;2864;49.220;8.654;2023-11-18T15:52:50;8.10;99.90
5683;DHT22;2864;49.220;8.654;2023-11-18T15:55:20;8.10;99.90
5683;DHT22;2864;49.220;8.654;2023-11-18T15:57:47;8.10;99.90
5683;DHT22;2864;49.220;8.654;2023-11-18T16:00:14;8.10;99.90
5683;DHT22;2864;49.220;8.654;2023-11-18T16:02:45;8.10;99.90
5683;DHT22;2864;49.220;8.654;2023-11-18T16:05:20;8.10;99.90
5683;DHT22;2864;49.220;8.654;2023-11-18T16:07:50;8.10;99.90
5683;DHT22;2864;49.220;8.654;2023-11-18T16:10:16;8.10;99.90
5683;DHT22;2864;49.220;8.654;2023-11-18T16:12:56;8.10;99.90
5683;DHT22;2864;49.220;8.654;2023-11-18T16:15:26;8.10;99.90
5683;DHT22;2864;49.220;8.654;2023-11-18T16:17:53;8.10;99.90
5683;DHT22;2864;49.220;8.654;2023-11-18T16:20:21;8.10;99.90
5683;DHT22;2864;49.220;8.654;2023-11-18T16:22:48;8.10;99.90
5683;DHT22;2864;49.220;8.654;2023-11-18T16:25:15;8.10;99.90
5683;DHT22;2864;49.220;8.654;2023-11-18T16:27:46;8.10;99.90
5683;DHT22;2864;49.220;8.654;2023-11-18T16:30:15;8.10;99.90
5683;DHT22;2864;49.220;8.654;2023-11-18T16:32:41;8.00;99.90
5683;DHT22;2864;49.220;8.654;2023-11-18T16:35:07;8.10;99.90
5683;DHT22;2864;49.220;8.654;2023-11-18T16:37:43;8.10;99.90
5683;DHT22;2864;49.220;8.654;2023-11-18T16:40:11;8.10;99.90
5683;DHT22;2864;49.220;8.654;2023-11-18T16:42:52;8.10;99.90
5683;DHT22;2864;49.220;8.654;2023-11-18T16:45:20;8.10;99.90
5683;DHT22;2864;49.220;8.654;2023-11-18T16:47:46;8.10;99.90
5683;DHT22;2864;49.220;8.654;2023-11-18T16:50:17;8.10;99.90
5683;DHT22;2864;49.220;8.654;2023-11-18T16:52:42;8.00;99.90
5683;DHT22;2864;49.220;8.654;2023-11-18T16:55:09;8.10;99.90
5683;DHT22;2864;49.220;8.654;2023-11-18T16:57:38;8.10;99.90
5683;DHT22;2864;49.220;8.654;2023-11-18T17:00:05;8.20;99.90
5683;DHT22;2864;49.220;8.654;2023-11-18T17:02:47;8.20;99.90
5683;DHT22;2864;49.220;8.654;2023-11-18T17:05:15;8.20;99.90
5683;DHT22;2864;49.220;8.654;2023-11-18T17:07:41;8.10;99.90
5683;DHT22;2864;49.220;8.654;2023-11-18T17:10:08;8.20;99.90
5683;DHT22;2864;49.220;8.654;2023-11-18T17:12:38;8.10;99.90
5683;DHT22;2864;49.220;8.654;2023-11-18T17:15:05;8.10;99.90
5683;DHT22;2864;49.220;8.654;2023-11-18T17:17:30;8.00;99.90
5683;DHT22;2864;49.220;8.654;2023-11-18T17:19:56;8.00;99.90
5683;DHT22;2864;49.220;8.654;2023-11-18T17:22:21;8.00;99.90
5683;DHT22;2864;49.220;8.654;2023-11-18T17:24:47;8.00;99.90
5683;DHT22;2864;49.220;8.654;2023-11-18T17:27:14;8.00;99.90
5683;DHT22;2864;49.220;8.654;2023-11-18T17:29:39;7.90;99.90
5683;DHT22;2864;49.220;8.654;2023-11-18T17:32:05;9.50;99.90
5683;DHT22;2864;49.220;8.654;2023-11-18T17:34:31;7.80;99.90
5683;DHT22;2864;49.220;8.654;2023-11-18T17:36:57;7.80;99.90